createdAt,value
2022-12-11T00:00:10.190Z,14.27
2022-12-11T00:02:37.462Z,20.85
2022-12-11T00:05:04.828Z,17.40
2022-12-11T00:07:31.750Z,16.10
2022-12-11T00:09:58.899Z,14.73
2022-12-11T00:12:25.864Z,12.90
2022-12-11T00:14:52.908Z,13.27
2022-12-11T00:17:19.919Z,12.25
2022-12-11T00:19:46.900Z,11.27
2022-12-11T00:22:16.645Z,10.82
2022-12-11T00:27:10.387Z,10.55
2022-12-11T00:29:37.291Z,10.35
2022-12-11T00:32:04.388Z,9.45
2022-12-11T00:34:31.378Z,10.13
2022-12-11T00:36:59.287Z,9.75
2022-12-11T00:39:26.240Z,9.07
2022-12-11T00:41:53.225Z,8.65
2022-12-11T00:44:20.208Z,8.65
2022-12-11T00:46:47.202Z,8.50
2022-12-11T00:49:14.062Z,8.43
2022-12-11T00:51:40.962Z,7.80
2022-12-11T00:54:07.827Z,7.65
2022-12-11T00:56:34.692Z,7.72
2022-12-11T00:59:01.701Z,7.53
2022-12-11T01:01:28.832Z,7.82
2022-12-11T01:03:55.747Z,7.45
2022-12-11T01:06:26.706Z,7.25
2022-12-11T01:09:13.861Z,7.32
2022-12-11T01:11:42.100Z,7.32
2022-12-11T01:14:10.172Z,7.03
2022-12-11T01:16:37.305Z,6.65
2022-12-11T01:19:04.403Z,7.20
2022-12-11T01:21:31.253Z,6.47
2022-12-11T01:23:58.181Z,7.25
2022-12-11T01:26:25.076Z,6.35
2022-12-11T01:28:52.598Z,6.60
2022-12-11T01:31:20.561Z,6.20
2022-12-11T01:33:47.594Z,6.50
2022-12-11T01:36:19.982Z,6.38
2022-12-11T01:38:48.094Z,6.10
2022-12-11T01:41:16.548Z,6.32
2022-12-11T01:43:59.677Z,6.20
2022-12-11T01:46:27.536Z,6.28
2022-12-11T01:48:55.013Z,6.07
2022-12-11T01:51:22.822Z,6.10
2022-12-11T01:53:54.338Z,5.75
2022-12-11T01:56:21.260Z,5.57
2022-12-11T01:58:51.697Z,6.13
2022-12-11T02:01:43.385Z,5.78
2022-12-11T02:04:11.123Z,5.78
2022-12-11T02:06:44.549Z,5.20
2022-12-11T02:09:14.710Z,5.90
2022-12-11T02:11:53.108Z,5.80
2022-12-11T02:14:41.619Z,5.30
2022-12-11T02:17:19.480Z,5.72
2022-12-11T02:19:53.015Z,5.40
2022-12-11T02:22:43.403Z,5.07
2022-12-11T02:25:19.170Z,5.72
2022-12-11T02:28:11.052Z,5.85
2022-12-11T02:30:39.828Z,5.75
2022-12-11T02:33:07.627Z,4.80
2022-12-11T02:35:40.748Z,5.40
2022-12-11T02:38:15.860Z,5.22
2022-12-11T02:40:44.068Z,5.00
2022-12-11T02:43:13.702Z,4.97
2022-12-11T02:45:42.341Z,5.10
2022-12-11T02:48:10.932Z,5.67
2022-12-11T02:50:42.354Z,5.50
2022-12-11T02:53:12.373Z,4.97
2022-12-11T02:55:40.699Z,5.47
2022-12-11T02:58:18.611Z,5.20
2022-12-11T03:00:46.901Z,5.38
2022-12-11T03:03:14.378Z,5.50
2022-12-11T03:05:41.933Z,5.10
2022-12-11T03:08:08.919Z,4.72
2022-12-11T03:10:35.948Z,5.03
2022-12-11T03:13:03.352Z,5.15
2022-12-11T03:15:47.201Z,5.10
2022-12-11T03:18:35.767Z,5.15
2022-12-11T03:21:02.587Z,4.53
2022-12-11T03:23:58.560Z,4.90
2022-12-11T03:26:25.472Z,4.90
2022-12-11T03:29:00.098Z,4.97
2022-12-11T03:31:32.589Z,4.80
2022-12-11T03:34:03.669Z,5.15
2022-12-11T03:36:33.358Z,5.50
2022-12-11T03:41:31.038Z,4.70
2022-12-11T03:43:59.026Z,5.28
2022-12-11T03:46:32.578Z,5.03
2022-12-11T03:51:38.229Z,5.10
2022-12-11T03:54:05.450Z,4.68
2022-12-11T03:56:34.811Z,4.82
2022-12-11T03:59:01.762Z,5.25
2022-12-11T04:01:28.704Z,5.20
2022-12-11T04:03:55.798Z,5.40
2022-12-11T04:06:22.762Z,5.28
2022-12-11T04:08:49.687Z,4.70
2022-12-11T04:11:34.873Z,4.85
2022-12-11T04:14:25.638Z,4.50
2022-12-11T04:16:53.002Z,5.20
2022-12-11T04:19:39.302Z,4.50
2022-12-11T04:22:15.031Z,4.72
2022-12-11T04:24:41.950Z,4.70
2022-12-11T04:27:08.915Z,4.50
2022-12-11T04:29:35.892Z,4.68
2022-12-11T04:32:02.859Z,4.55
2022-12-11T04:34:30.175Z,4.38
2022-12-11T04:36:57.082Z,4.60
2022-12-11T04:39:24.046Z,4.70
2022-12-11T04:41:50.921Z,4.57
2022-12-11T04:44:17.825Z,4.40
2022-12-11T04:46:44.794Z,4.47
2022-12-11T04:49:12.920Z,4.90
2022-12-11T04:51:39.960Z,4.72
2022-12-11T04:54:06.901Z,4.55
2022-12-11T04:56:33.787Z,4.20
2022-12-11T04:59:01.404Z,4.43
2022-12-11T05:01:28.320Z,3.90
2022-12-11T05:03:55.294Z,4.50
2022-12-11T05:06:22.243Z,4.00
2022-12-11T05:08:49.206Z,3.63
2022-12-11T05:11:16.234Z,4.35
2022-12-11T05:13:43.614Z,4.07
2022-12-11T05:16:12.872Z,3.78
2022-12-11T05:18:40.030Z,4.00
2022-12-11T05:21:09.613Z,3.95
2022-12-11T05:23:37.212Z,4.20
2022-12-11T05:26:07.536Z,3.70
2022-12-11T05:28:36.650Z,3.88
2022-12-11T05:31:12.137Z,3.95
2022-12-11T05:33:39.124Z,3.78
2022-12-11T05:36:07.216Z,3.50
2022-12-11T05:38:34.155Z,3.95
2022-12-11T05:41:03.544Z,3.78
2022-12-11T05:43:33.461Z,3.75
2022-12-11T05:46:12.178Z,4.15
2022-12-11T05:48:40.184Z,3.50
2022-12-11T05:51:08.440Z,4.22
2022-12-11T05:53:37.174Z,4.35
2022-12-11T05:56:06.484Z,3.63
2022-12-11T05:58:34.455Z,3.60
2022-12-11T06:01:01.411Z,3.97
2022-12-11T06:03:28.619Z,4.13
2022-12-11T06:05:55.898Z,3.92
2022-12-11T06:08:22.918Z,3.72
2022-12-11T06:10:50.747Z,4.28
2022-12-11T06:13:17.760Z,4.25
2022-12-11T06:15:45.120Z,4.18
2022-12-11T06:18:12.035Z,4.30
2022-12-11T06:20:39.127Z,4.05
2022-12-11T06:23:06.109Z,3.65
2022-12-11T06:25:33.322Z,3.90
2022-12-11T06:28:00.261Z,4.30
2022-12-11T06:30:37.548Z,3.92
2022-12-11T06:33:06.747Z,4.18
2022-12-11T06:35:40.071Z,3.97
2022-12-11T06:38:08.984Z,4.25
2022-12-11T06:40:35.908Z,3.60
2022-12-11T06:43:03.608Z,3.50
2022-12-11T06:45:30.973Z,3.90
2022-12-11T06:47:58.849Z,3.47
2022-12-11T06:50:26.083Z,3.90
2022-12-11T06:52:53.014Z,3.47
2022-12-11T06:55:19.908Z,3.60
2022-12-11T06:57:46.823Z,4.32
2022-12-11T07:00:14.527Z,3.80
2022-12-11T07:02:41.559Z,4.00
2022-12-11T07:05:09.135Z,3.97
2022-12-11T07:07:36.379Z,3.92
2022-12-11T07:10:07.922Z,4.20
2022-12-11T07:12:35.442Z,4.00
2022-12-11T07:15:02.426Z,4.00
2022-12-11T07:17:29.952Z,4.10
2022-12-11T07:19:56.918Z,3.83
2022-12-11T07:22:23.913Z,3.58
2022-12-11T07:24:50.939Z,3.90
2022-12-11T07:27:17.857Z,3.80
2022-12-11T07:29:45.093Z,4.25
2022-12-11T07:32:12.142Z,3.90
2022-12-11T07:34:39.248Z,3.95
2022-12-11T07:37:06.178Z,3.75
2022-12-11T07:39:33.100Z,3.90
2022-12-11T07:42:00.060Z,3.80
2022-12-11T07:44:26.979Z,3.78
2022-12-11T07:46:53.844Z,4.22
2022-12-11T07:49:20.707Z,4.07
2022-12-11T07:51:47.552Z,3.83
2022-12-11T07:54:16.774Z,4.03
2022-12-11T07:56:46.515Z,3.90
2022-12-11T07:59:17.003Z,4.20
2022-12-11T08:01:44.343Z,4.25
2022-12-11T08:04:15.516Z,4.28
2022-12-11T08:06:43.283Z,4.07
2022-12-11T08:09:17.445Z,4.38
2022-12-11T08:11:49.801Z,4.22
2022-12-11T08:14:16.739Z,4.30
2022-12-11T08:16:44.272Z,4.00
2022-12-11T08:19:14.539Z,4.18
2022-12-11T08:21:41.634Z,4.60
2022-12-11T08:24:09.188Z,4.13
2022-12-11T08:26:36.570Z,4.47
2022-12-11T08:29:04.166Z,4.20
2022-12-11T08:31:31.420Z,4.22
2022-12-11T08:33:58.635Z,4.70
2022-12-11T08:36:25.913Z,4.40
2022-12-11T08:38:55.113Z,4.32
2022-12-11T08:41:27.572Z,5.70
2022-12-11T08:43:56.465Z,28.25
2022-12-11T08:46:25.716Z,36.75
2022-12-11T08:48:52.891Z,33.05
2022-12-11T08:51:23.009Z,30.52
2022-12-11T08:53:51.252Z,28.15
2022-12-11T08:56:20.436Z,25.40
2022-12-11T08:58:47.940Z,24.15
2022-12-11T09:01:18.073Z,22.52
2022-12-11T09:03:45.319Z,20.60
2022-12-11T09:06:15.201Z,18.17
2022-12-11T09:08:46.013Z,16.80
2022-12-11T09:11:23.091Z,15.80
2022-12-11T09:13:50.673Z,15.05
2022-12-11T09:16:20.872Z,15.00
2022-12-11T09:18:49.159Z,27.50
2022-12-11T09:21:18.725Z,31.33
2022-12-11T09:26:15.095Z,29.20
2022-12-11T09:28:46.185Z,25.83
2022-12-11T09:31:28.427Z,24.23
2022-12-11T09:33:57.403Z,22.90
2022-12-11T09:36:24.465Z,21.38
2022-12-11T09:38:51.519Z,21.65
2022-12-11T09:41:26.452Z,19.55
2022-12-11T09:44:04.056Z,19.13
2022-12-11T09:46:34.360Z,17.92
2022-12-11T09:49:03.379Z,16.63
2022-12-11T09:51:52.450Z,15.43
2022-12-11T09:54:19.379Z,15.77
2022-12-11T09:57:11.667Z,14.98
2022-12-11T09:59:46.239Z,15.35
2022-12-11T10:02:32.102Z,12.93
2022-12-11T10:05:27.349Z,14.10
2022-12-11T10:08:00.791Z,12.75
2022-12-11T10:10:53.768Z,12.93
2022-12-11T10:13:39.422Z,13.05
2022-12-11T10:16:49.298Z,11.98
2022-12-11T10:19:29.369Z,11.90
2022-12-11T10:21:57.040Z,11.00
2022-12-11T10:25:12.620Z,12.15
2022-12-11T10:27:40.572Z,11.27
2022-12-11T10:30:15.894Z,11.43
2022-12-11T10:33:07.773Z,11.05
2022-12-11T10:35:45.939Z,11.35
2022-12-11T10:38:20.895Z,11.30
2022-12-11T10:40:54.928Z,10.70
2022-12-11T10:43:33.102Z,10.98
2022-12-11T10:46:00.182Z,10.45
2022-12-11T10:48:27.130Z,10.68
2022-12-11T10:51:01.314Z,10.40
2022-12-11T10:53:29.279Z,9.75
2022-12-11T10:55:58.609Z,9.73
2022-12-11T10:58:33.999Z,10.07
2022-12-11T11:01:04.327Z,10.02
2022-12-11T11:03:32.832Z,9.30
2022-12-11T11:06:26.272Z,9.82
2022-12-11T11:08:56.296Z,10.32
2022-12-11T11:11:36.666Z,9.70
2022-12-11T11:14:14.769Z,8.68
2022-12-11T11:16:44.138Z,8.60
2022-12-11T11:19:24.373Z,9.05
2022-12-11T11:21:58.063Z,8.85
2022-12-11T11:24:29.695Z,8.52
2022-12-11T11:27:12.855Z,8.88
2022-12-11T11:29:41.319Z,8.20
2022-12-11T11:32:24.215Z,7.93
2022-12-11T11:34:51.190Z,7.93
2022-12-11T11:37:31.099Z,7.82
2022-12-11T11:40:06.403Z,8.55
2022-12-11T11:42:50.380Z,8.20
2022-12-11T11:45:34.652Z,8.38
2022-12-11T11:48:17.517Z,7.95
2022-12-11T11:50:46.173Z,7.95
2022-12-11T11:53:19.845Z,7.57
2022-12-11T11:56:07.620Z,7.22
2022-12-11T11:58:42.362Z,8.35
2022-12-11T12:01:17.559Z,7.63
2022-12-11T12:03:45.649Z,8.25
2022-12-11T12:06:31.872Z,7.53
2022-12-11T12:09:27.467Z,7.03
2022-12-11T12:12:01.484Z,7.90
2022-12-11T12:14:52.780Z,7.65
2022-12-11T12:17:27.216Z,7.60
2022-12-11T12:20:04.998Z,6.90
2022-12-11T12:22:56.771Z,7.25
2022-12-11T12:25:42.221Z,7.07
2022-12-11T12:28:34.125Z,7.28
2022-12-11T12:31:25.427Z,7.00
2022-12-11T12:34:37.905Z,6.72
2022-12-11T12:37:23.704Z,7.32
2022-12-11T12:39:59.859Z,6.93
2022-12-11T12:42:43.233Z,6.80
2022-12-11T12:45:16.037Z,6.32
2022-12-11T12:47:51.784Z,6.80
2022-12-11T12:50:25.424Z,6.55
2022-12-11T12:52:53.249Z,6.40
2022-12-11T12:55:23.019Z,7.00
2022-12-11T13:00:41.906Z,6.68
2022-12-11T13:03:20.292Z,6.60
2022-12-11T13:11:16.546Z,6.38
2022-12-11T13:13:55.003Z,6.45
2022-12-11T13:16:28.754Z,6.28
2022-12-11T13:18:55.661Z,6.47
2022-12-11T13:21:34.253Z,6.55
2022-12-11T13:24:13.244Z,6.32
2022-12-11T13:26:40.928Z,5.97
2022-12-11T13:29:31.951Z,5.85
2022-12-11T13:32:08.085Z,6.20
2022-12-11T13:34:37.958Z,5.93
2022-12-11T13:37:06.073Z,6.55
2022-12-11T13:39:35.180Z,5.28
2022-12-11T13:42:05.102Z,5.82
2022-12-11T13:44:39.050Z,6.13
2022-12-11T13:47:08.181Z,5.63
2022-12-11T13:49:37.755Z,5.88
2022-12-11T13:52:05.697Z,5.35
2022-12-11T13:54:36.388Z,5.55
2022-12-11T13:57:09.517Z,5.82
2022-12-11T13:59:38.522Z,5.50
2022-12-11T14:02:14.635Z,5.85
2022-12-11T14:04:41.957Z,4.85
2022-12-11T14:07:10.514Z,5.50
2022-12-11T14:09:43.954Z,5.25
2022-12-11T14:12:20.159Z,5.10
2022-12-11T14:14:53.908Z,5.43
2022-12-11T14:17:32.468Z,5.28
2022-12-11T14:20:01.820Z,5.07
2022-12-11T14:22:30.160Z,4.93
2022-12-11T14:25:05.245Z,4.93
2022-12-11T14:27:32.284Z,4.65
2022-12-11T14:30:10.978Z,4.82
2022-12-11T14:32:43.343Z,4.68
2022-12-11T14:35:26.845Z,4.18
2022-12-11T14:37:54.773Z,4.60
2022-12-11T14:40:25.613Z,4.30
2022-12-11T14:43:00.462Z,4.72
2022-12-11T14:45:53.936Z,4.78
2022-12-11T14:48:25.671Z,4.20
2022-12-11T14:50:54.872Z,4.35
2022-12-11T14:53:28.096Z,4.47
2022-12-11T14:55:56.143Z,4.20
2022-12-11T14:58:25.198Z,3.92
2022-12-11T15:01:05.924Z,4.00
2022-12-11T15:03:38.016Z,4.03
2022-12-11T15:06:28.660Z,4.13
2022-12-11T15:08:55.924Z,4.10
2022-12-11T15:11:24.205Z,3.90
2022-12-11T15:13:56.907Z,3.90
2022-12-11T15:16:25.844Z,3.90
2022-12-11T15:18:54.719Z,3.90
2022-12-11T15:21:30.137Z,4.17
2022-12-11T15:23:58.909Z,3.70
2022-12-11T15:26:45.860Z,3.55
2022-12-11T15:29:38.670Z,3.90
2022-12-11T15:32:08.634Z,3.80
2022-12-11T15:34:45.961Z,3.60
2022-12-11T15:39:54.351Z,3.60
2022-12-11T15:42:41.559Z,24.27
2022-12-11T15:47:45.038Z,26.60
2022-12-11T15:50:23.602Z,27.27
2022-12-11T15:52:52.577Z,24.95
2022-12-11T15:55:20.792Z,23.27
2022-12-11T15:57:58.148Z,23.05
2022-12-11T16:00:27.613Z,22.15
2022-12-11T16:02:55.686Z,20.50
2022-12-11T16:05:22.859Z,19.25
2022-12-11T16:07:54.108Z,18.48
2022-12-11T16:10:21.782Z,17.95
2022-12-11T16:12:48.690Z,17.05
2022-12-11T16:15:22.772Z,16.48
2022-12-11T16:17:50.840Z,15.35
2022-12-11T16:20:17.982Z,15.40
2022-12-11T16:22:44.838Z,14.23
2022-12-11T16:25:12.052Z,14.27
2022-12-11T16:27:39.130Z,14.15
2022-12-11T16:30:06.637Z,13.80
2022-12-11T16:32:33.632Z,12.73
2022-12-11T16:35:01.262Z,12.40
2022-12-11T16:37:28.396Z,12.13
2022-12-11T16:39:55.463Z,11.68
2022-12-11T16:42:22.336Z,11.43
2022-12-11T16:44:49.305Z,10.60
2022-12-11T16:47:16.172Z,10.57
2022-12-11T16:49:46.031Z,10.38
2022-12-11T16:54:43.325Z,21.67
2022-12-11T16:57:10.265Z,25.25
2022-12-11T16:59:37.864Z,21.40
2022-12-11T17:02:05.268Z,20.60
2022-12-11T17:04:32.691Z,18.67
2022-12-11T17:06:59.681Z,18.33
2022-12-11T17:09:26.546Z,17.85
2022-12-11T17:11:53.515Z,16.45
2022-12-11T17:14:20.495Z,15.55
2022-12-11T17:16:48.183Z,14.80
2022-12-11T17:19:15.774Z,14.82
2022-12-11T17:21:45.897Z,14.93
2022-12-11T17:24:17.989Z,13.65
2022-12-11T17:26:44.883Z,12.43
2022-12-11T17:29:12.842Z,12.50
2022-12-11T17:31:39.909Z,11.43
2022-12-11T17:34:06.863Z,10.68
2022-12-11T17:36:33.732Z,11.82
2022-12-11T17:39:00.774Z,11.38
2022-12-11T17:41:27.711Z,10.52
2022-12-11T17:43:54.665Z,10.15
2022-12-11T17:46:22.077Z,9.77
2022-12-11T17:48:49.443Z,10.13
2022-12-11T17:51:24.621Z,9.73
2022-12-11T17:53:52.775Z,8.90
2022-12-11T17:56:20.102Z,8.90
2022-12-11T17:58:47.097Z,8.82
2022-12-11T18:01:14.017Z,8.40
2022-12-11T18:03:41.598Z,8.23
2022-12-11T18:06:11.761Z,8.18
2022-12-11T18:08:39.270Z,8.50
2022-12-11T18:11:12.245Z,7.57
2022-12-11T18:13:39.816Z,7.75
2022-12-11T18:18:40.340Z,7.30
2022-12-11T18:21:07.786Z,7.25
2022-12-11T18:23:34.779Z,7.00
2022-12-11T18:26:01.844Z,7.25
2022-12-11T18:28:31.791Z,6.72
2022-12-11T18:31:03.153Z,7.03
2022-12-11T18:33:30.788Z,6.53
2022-12-11T18:35:57.694Z,6.20
2022-12-11T18:38:24.738Z,6.40
2022-12-11T18:40:51.710Z,6.15
2022-12-11T18:43:18.670Z,6.20
2022-12-11T18:45:45.743Z,6.15
2022-12-11T18:48:13.944Z,6.25
2022-12-11T18:50:45.910Z,5.82
2022-12-11T18:53:13.538Z,5.65
2022-12-11T18:55:44.885Z,5.57
2022-12-11T18:58:12.742Z,5.60
2022-12-11T19:00:40.906Z,5.93
2022-12-11T19:03:08.522Z,5.55
2022-12-11T19:05:36.197Z,5.43
2022-12-11T19:08:04.023Z,5.57
2022-12-11T19:10:30.871Z,6.03
2022-12-11T19:12:57.821Z,5.15
2022-12-11T19:15:24.748Z,5.45
2022-12-11T19:17:51.656Z,5.57
2022-12-11T19:20:47.372Z,5.80
2022-12-11T19:23:06.660Z,5.25
2022-12-11T19:25:33.838Z,4.97
2022-12-11T19:28:01.371Z,5.25
2022-12-11T19:30:28.394Z,5.60
2022-12-11T19:32:55.335Z,5.07
2022-12-11T19:35:22.233Z,5.18
2022-12-11T19:37:49.142Z,5.40
2022-12-11T19:40:16.629Z,5.00
2022-12-11T19:42:43.495Z,5.40
2022-12-11T19:45:11.189Z,5.10
2022-12-11T19:47:38.573Z,4.90
2022-12-11T19:50:06.268Z,5.13
2022-12-11T19:52:33.409Z,5.22
2022-12-11T19:55:05.535Z,88.13
2022-12-11T19:57:35.280Z,90.80
2022-12-11T20:02:29.221Z,81.57
2022-12-11T20:04:56.244Z,80.03
2022-12-11T20:07:27.469Z,69.57
2022-12-11T20:09:57.471Z,63.58
2022-12-11T20:12:24.561Z,63.03
2022-12-11T20:14:51.485Z,52.42
2022-12-11T20:17:18.612Z,49.92
2022-12-11T20:19:45.662Z,47.53
2022-12-11T20:22:12.606Z,47.15
2022-12-11T20:24:39.712Z,42.80
2022-12-11T20:27:06.715Z,40.63
2022-12-11T20:29:33.615Z,36.75
2022-12-11T20:32:00.614Z,35.42
2022-12-11T20:34:27.976Z,33.88
2022-12-11T20:36:55.692Z,31.38
2022-12-11T20:39:22.643Z,30.48
2022-12-11T20:41:49.616Z,28.02
2022-12-11T20:44:16.706Z,26.10
2022-12-11T20:46:43.669Z,24.30
2022-12-11T20:49:13.132Z,24.40
2022-12-11T20:51:40.668Z,23.17
2022-12-11T20:54:07.656Z,21.13
2022-12-11T20:56:34.572Z,21.13
2022-12-11T20:59:01.490Z,20.27
2022-12-11T21:01:31.222Z,19.42
2022-12-11T21:06:34.261Z,17.95
2022-12-11T21:09:04.594Z,17.55
2022-12-11T21:11:31.642Z,17.35
2022-12-11T21:13:59.139Z,17.15
2022-12-11T21:16:26.288Z,16.55
2022-12-11T21:18:53.476Z,16.52
2022-12-11T21:21:20.464Z,15.57
2022-12-11T21:23:47.370Z,15.27
2022-12-11T21:26:14.541Z,14.90
2022-12-11T21:28:41.625Z,14.90
2022-12-11T21:31:12.038Z,14.57
2022-12-11T21:33:39.402Z,14.50
2022-12-11T21:36:07.024Z,13.70
2022-12-11T21:38:33.997Z,13.25
2022-12-11T21:41:16.192Z,13.60
2022-12-11T21:44:14.604Z,12.68
2022-12-11T21:46:30.926Z,13.10
2022-12-11T21:48:57.893Z,12.52
2022-12-11T21:51:34.085Z,26.13
2022-12-11T21:54:05.203Z,61.38
2022-12-11T21:56:32.435Z,67.50
2022-12-11T21:59:01.364Z,69.15
2022-12-11T22:01:41.080Z,65.20
2022-12-11T22:04:08.930Z,62.15
2022-12-11T22:06:36.135Z,53.75
2022-12-11T22:09:05.311Z,49.10
2022-12-11T22:14:02.081Z,41.88
2022-12-11T22:16:29.118Z,38.53
2022-12-11T22:18:56.119Z,36.35
2022-12-11T22:21:23.159Z,36.05
2022-12-11T22:23:50.235Z,33.95
2022-12-11T22:26:20.195Z,31.23
2022-12-11T22:28:47.199Z,29.27
2022-12-11T22:31:16.851Z,27.70
2022-12-11T22:33:43.910Z,28.38
2022-12-11T22:36:11.416Z,31.73
2022-12-11T22:38:39.535Z,87.78
2022-12-11T22:41:20.441Z,104.13
2022-12-11T22:43:48.983Z,101.68
2022-12-11T22:46:17.182Z,92.55
2022-12-11T22:48:44.155Z,80.35
2022-12-11T22:51:11.370Z,77.88
2022-12-11T22:53:38.273Z,77.40
2022-12-11T22:56:10.775Z,69.68
2022-12-11T22:58:38.609Z,63.80
2022-12-11T23:01:14.808Z,60.22
2022-12-11T23:03:41.771Z,56.55
2022-12-11T23:06:11.318Z,56.03
2022-12-11T23:08:39.674Z,53.92
2022-12-11T23:11:16.896Z,50.50
2022-12-11T23:13:44.039Z,50.17
2022-12-11T23:16:11.791Z,46.92
2022-12-11T23:18:39.487Z,43.88
2022-12-11T23:21:07.428Z,42.70
2022-12-11T23:23:34.570Z,42.08
2022-12-11T23:26:01.877Z,38.42
2022-12-11T23:28:28.975Z,38.47
2022-12-11T23:30:55.946Z,37.15
2022-12-11T23:33:22.948Z,38.22
2022-12-11T23:35:50.011Z,34.60
2022-12-11T23:38:17.499Z,33.53
2022-12-11T23:40:44.774Z,32.67
2022-12-11T23:43:11.707Z,32.63
2022-12-11T23:45:38.682Z,31.67
2022-12-11T23:48:05.648Z,31.00
2022-12-11T23:50:33.052Z,30.00
2022-12-11T23:53:00.573Z,28.98
2022-12-11T23:55:27.682Z,29.77
2022-12-11T23:57:55.612Z,29.40
